Flight Track Log - Related Links

Times and Time Zones

All times are in EDT time to prevent confusion due to time zone crossing. See the ASQ5025 flight status page for this flight to view local times or setup timezone preferences in your user account.

Time Position Orientation Groundspeed Altitude Reporting Facility
EDT Latitude Longitude Course Direction KTS MPH feet Rate Location/Type
Tue 11:19:25 AM 44.2378 -73.2167 196° South 425 489 10,500  Level Boston Center
Tue 11:20:26 AM 44.1481 -73.2531 196° South 364 419 11,800 2,132 Climbing Boston Center
Tue 11:21:26 AM 44.0372 -73.2978 196° South 364 419 14,800 3,025 Climbing Boston Center
Tue 11:22:25 AM 43.9411 -73.3367 196° South 364 419 17,800 2,471 Climbing Boston Center
Tue 11:23:25 AM 43.8428 -73.3756 196° South 364 419 19,700 1,850 Climbing Boston Center
Tue 11:24:00 AM 44.0053 -73.3246 196° South  Level FlightAware Approximate
Tue 11:24:25 AM 43.7406 -73.4172 196° South 377 434 21,500  Level Boston Center
Tue 11:25:26 AM 43.6464 -73.4528 195° South 391 450 23,000 1,636 Climbing Boston Center
Tue 11:26:26 AM 43.5333 -73.4969 196° South 403 464 24,800 1,008 Climbing Boston Center
Tue 11:27:25 AM 43.4183 -73.5406 195° South 422 486 25,000 -151 Climbing Boston Center
Tue 11:28:25 AM 43.2992 -73.5925 198° South 437 503 24,500 -500 Descending Boston Center
Tue 11:29:25 AM 43.1797 -73.6358 195° South 443 510 24,000 -595 Descending Boston Center
Tue 11:30:26 AM 43.0500 -73.6903 197° South 443 510 23,300 -744 Descending Boston Center
Tue 11:31:26 AM 42.9350 -73.7361 196° South 438 504 22,500 -700 Descending Boston Center
Tue 11:32:26 AM 42.8219 -73.7789 196° South 433 498 21,900 -650 Descending Boston Center
Tue 11:33:26 AM 42.7092 -73.7992 188° South 423 487 21,200 -650 Descending Boston Center
Tue 11:34:26 AM 42.6133 -73.7803 172° South 412 474 20,600 -650 Descending Boston Center
Tue 11:35:26 AM 42.4803 -73.7547 172° South 417 480 19,900 -700 Descending Boston Center
Tue 11:36:26 AM 42.3661 -73.7300 171° South 417 480 19,200 -700 Descending Boston Center
Tue 11:37:26 AM 42.2536 -73.7050 171° South 417 480 18,500 -605 Descending Boston Center
Tue 11:38:25 AM 42.1539 -73.6836 171° South 417 480 18,000 -252 Descending Boston Center
Tue 11:39:25 AM 42.0311 -73.6586 171° South 412 474 18,000  Level Boston Center
Tue 11:40:26 AM 41.9247 -73.6761 187° South 389 448 18,000 -150 Level Boston Center
Tue 11:41:25 AM 41.8219 -73.7383 204° Southwest 403 464 17,700 -1,160 Descending Boston Center
Tue 11:42:25 AM 41.7175 -73.7611 189° South 397 457 15,700 -2,316 Descending Boston Center
Tue 11:44:16 AM 41.5333 -73.7833 185° South 340 391 11,100 -2,035 Descending New York TRACON
Tue 11:45:16 AM 41.4500 -73.7833 180° South 299 344 9,900 -1,350 Descending New York TRACON
Tue 11:46:16 AM 41.3833 -73.8000 191° South 286 329 8,400 -1,632 Descending New York TRACON
Tue 11:47:10 AM 41.3167 -73.7667 159° South 275 316 6,800 -1,737 Descending New York TRACON
Tue 11:48:10 AM 41.2500 -73.7167 151° Southeast 262 302 5,100 -1,350 Descending New York TRACON
Tue 11:49:10 AM 41.1833 -73.6667 151° Southeast 255 293 4,100 -476 Descending New York TRACON
Tue 11:50:16 AM 41.1167 -73.6500 169° South 260 299 4,100  Level New York TRACON
Tue 11:51:10 AM 41.0500 -73.6667 191° South 262 302 4,100  Level New York TRACON
Tue 11:52:16 AM 41.0000 -73.7333 225° Southwest 263 303 4,100  Level New York TRACON
Tue 11:53:16 AM 40.9667 -73.8167 242° Southwest 267 307 4,100  Level New York TRACON
Tue 11:54:10 AM 40.9167 -73.8833 225° Southwest 268 308 4,100  Level New York TRACON
Tue 11:55:16 AM 40.8667 -73.9333 217° Southwest 221 254 4,100  Level New York TRACON
Tue 11:56:10 AM 40.8167 -73.9667 207° Southwest 204 235 4,100  Level New York TRACON
Tue 11:57:10 AM 40.7667 -74.0167 217° Southwest 213 245 4,100 -100 Level New York TRACON
Tue 11:58:10 AM 40.7167 -74.0500 207° Southwest 220 253 3,900 -526 Descending New York TRACON
Tue 11:59:04 AM 40.6667 -74.0833 207° Southwest 209 241 3,100 -650 Descending New York TRACON
Tue 12:00:10 PM 40.6333 -74.0333 131° Southeast 198 228 2,600 -476 Descending New York TRACON
Tue 12:01:10 PM 40.6667 -73.9833 49° Northeast 196 226 2,100 -368 Descending New York TRACON
Tue 12:02:04 PM 40.7000 -73.9500 37° Northeast 183 211 1,900 -579 Descending New York TRACON
Tue 12:03:04 PM 40.7333 -73.9167 37° Northeast 149 171 1,000 -800 Descending New York TRACON
Tue 12:04:04 PM 40.7667 -73.8833 37° Northeast 122 140 300 -700 Descending New York TRACON

Login

Don't have an account? Register now (free) for customized features, flight alerts, and more!